To NAV CANADA Home Page Login to a new session Search on AWWS site Feedback and Comments Disclaimer Vers la page française équivalente Tips FAQ What's new on the site To the Forecasts and Observations / NOTAM section To "File a Flight Plan" website Publications and other links Update of the User's profile FIC Telephone Numbers My Weather Data Folder Route Weather Data Regional Weather Data Local Weather Data To the Forecasts and Observations / NOTAM section
Request Generated 04/23/2014 at 17:31:00 UTC . Weather information available at that time is displayed.

METAR/TAF

KUUJJUAQ/QC    

METAR CYVP 231700Z 03009KT 15SM OVC013 M07/M10 A3010 RMK SF8 CIG RAG
SLP196=
METAR CYVP 231600Z 36010KT 15SM BKN013 M07/M11 A3009 RMK SF7 SLP193=
SPECI CYVP 231538Z 35011KT 15SM BKN014 BKN170 M08/M11 A3009 RMK
SF5AC2 SLP192=
METAR CYVP 231500Z 35011KT 15SM FEW015 SCT036 SCT170 M08/M11 A3009
RMK SF1SC2AC1 SLP193=

TAF CYVP 231139Z 2312/2324 35008KT P6SM SCT008 BKN240 TEMPO 2312/2316
P6SM -SN BKN008 OVC240
FM231600 02012KT P6SM BKN010 OVC025 TEMPO 2316/2324 FEW010 BKN025
RMK NXT FCST BY 231800Z=
Your time UTC time
Weather data provided by Environment Canada and NAV CANADA